Estación de Lebu INIA
Ultimos registro cada 15 minutos 73
| N° | Estación | Fecha / Hora | Temperatura | Humedad | Lluvia | Velocidad | Dirección | Radiación | Presion |
| 73 | Lebu INIA | 02-09-2026 18:00 | 8,8 | 88,9 | 0 | 0,1 | 283 | 27,6 | 1096 |
| 72 | Lebu INIA | 02-09-2026 17:45 | 8,8 | 88 | 0,5 | 0,5 | 275 | 23,7 | 1095 |
| 71 | Lebu INIA | 02-09-2026 17:30 | 9,6 | 85,1 | 1,3 | 1,9 | 312 | 28,3 | 1093 |
| 70 | Lebu INIA | 02-09-2026 17:15 | 10,4 | 87 | 0 | 2,1 | 320 | 40,4 | 1094 |
| 69 | Lebu INIA | 02-09-2026 17:00 | 10,8 | 82,1 | 0 | 2,5 | 316 | 68 | 0 |
| 68 | Lebu INIA | 02-09-2026 16:45 | 10,9 | 81 | 0 | 2,4 | 319 | 144,2 | 1091 |
| 67 | Lebu INIA | 02-09-2026 16:30 | 11,1 | 79,8 | 0 | 2,8 | 312 | 171,4 | 1092 |
| 66 | Lebu INIA | 02-09-2026 16:15 | 11,1 | 78,3 | 0 | 2,5 | 320 | 165,3 | 1089 |
| 65 | Lebu INIA | 02-09-2026 16:00 | 11,3 | 78,3 | 0 | 2,6 | 310 | 333,5 | 1088 |
| 64 | Lebu INIA | 02-09-2026 15:45 | 11,4 | 81,2 | 0 | 2,6 | 323 | 263 | 1089 |
| 63 | Lebu INIA | 02-09-2026 15:30 | 11,2 | 80,1 | 0 | 2,1 | 301 | 248,7 | 1090 |
| 62 | Lebu INIA | 02-09-2026 15:15 | 11,7 | 78 | 0 | 2,3 | 305 | 206,3 | 1083 |
| 61 | Lebu INIA | 02-09-2026 15:00 | 12,4 | 74,3 | 0 | 2,3 | 314 | 474,7 | 1087 |
| 60 | Lebu INIA | 02-09-2026 14:45 | 12 | 71,5 | 0 | 1,5 | 291 | 470,9 | 1085 |
| 59 | Lebu INIA | 02-09-2026 14:30 | 12,2 | 68,7 | 0 | 2,9 | 286 | 549,4 | 1080 |
| 58 | Lebu INIA | 02-09-2026 14:15 | 12,4 | 65,1 | 0 | 2 | 274 | 678,5 | 1089 |
| 57 | Lebu INIA | 02-09-2026 14:00 | 12,2 | 65,1 | 0 | 1,7 | 289 | 606,6 | 1082 |
| 56 | Lebu INIA | 02-09-2026 13:45 | 12,5 | 68,3 | 0 | 1,3 | 303 | 605,1 | 1085 |
| 55 | Lebu INIA | 02-09-2026 13:30 | 12,3 | 69,4 | 0 | 2,1 | 290 | 749,6 | 1086 |
| 54 | Lebu INIA | 02-09-2026 13:15 | 12,1 | 66,8 | 0 | 2,5 | 304 | 599 | 1094 |
| 53 | Lebu INIA | 02-09-2026 13:00 | 12 | 71 | 0 | 2,2 | 306 | 581,3 | 1084 |
| 52 | Lebu INIA | 02-09-2026 12:45 | 12,1 | 71,9 | 0 | 2,2 | 283 | 723,3 | 1087 |
| 51 | Lebu INIA | 02-09-2026 12:30 | 11,8 | 77,8 | 0 | 1,9 | 284 | 736,5 | 1083 |
| 50 | Lebu INIA | 02-09-2026 12:15 | 11,1 | 77,2 | 0 | 1,8 | 273 | 635,6 | 1085 |
| 49 | Lebu INIA | 02-09-2026 12:00 | 10,7 | 76,3 | 0 | 0,7 | 257 | 479,2 | 1086 |
| 48 | Lebu INIA | 02-09-2026 11:45 | 10,6 | 74,9 | 0 | 1,1 | 270 | 267,4 | 1087 |
| 47 | Lebu INIA | 02-09-2026 11:30 | 10,2 | 73,6 | 0 | 1,7 | 306 | 485,7 | 1085 |
| 46 | Lebu INIA | 02-09-2026 11:15 | 9,4 | 71 | 0 | 1,6 | 313 | 567 | 1082 |
| 45 | Lebu INIA | 02-09-2026 11:00 | 7,3 | 73,8 | 0 | 1 | 307 | 626,5 | 1094 |
| 44 | Lebu INIA | 02-09-2026 10:45 | 5,7 | 87,3 | 0 | 0,5 | 328 | 505,6 | 1093 |
| 43 | Lebu INIA | 02-09-2026 10:30 | 5 | 97,9 | 0 | 0,8 | 274 | 320,9 | 1094 |
| 42 | Lebu INIA | 02-09-2026 10:15 | 4,9 | 100 | 0 | 0,5 | 258 | 282,6 | 1090 |
| 41 | Lebu INIA | 02-09-2026 10:00 | 4,7 | 100 | 0 | 0,2 | 270 | 233,2 | 1091 |
| 40 | Lebu INIA | 02-09-2026 09:45 | 4,5 | 100 | 0 | 0,4 | 272 | 140,5 | 1092 |
| 39 | Lebu INIA | 02-09-2026 09:30 | 4,6 | 100 | 0 | 0,1 | 267 | 171,5 | 1092 |
| 38 | Lebu INIA | 02-09-2026 09:15 | 4,3 | 100 | 0 | 0 | 0 | 165,7 | 0 |
| 37 | Lebu INIA | 02-09-2026 09:00 | 4,2 | 0,4 | 0 | 0 | 0 | 91,7 | 1093 |
| 36 | Lebu INIA | 02-09-2026 08:45 | 4,1 | 0,4 | 0 | 0 | 228 | 101,9 | 1093 |
| 35 | Lebu INIA | 02-09-2026 08:30 | 4 | 0,4 | 0 | 0 | 262 | 100,9 | 1093 |
| 34 | Lebu INIA | 02-09-2026 08:15 | 3,9 | 0,4 | 0 | 0 | 250 | 62,7 | 1093 |
| 33 | Lebu INIA | 02-09-2026 08:00 | 4 | 0,4 | 0 | 0 | 0 | 32 | 1092 |
| 32 | Lebu INIA | 02-09-2026 07:45 | 4,1 | 0,4 | 0 | 0 | 282 | 22 | 1093 |
| 31 | Lebu INIA | 02-09-2026 07:30 | 4,2 | 0,4 | 0 | 0,4 | 263 | 7,5 | 1090 |
| 30 | Lebu INIA | 02-09-2026 07:15 | 4,4 | 0,4 | 0 | 0,5 | 263 | 0,9 | 1090 |
| 29 | Lebu INIA | 02-09-2026 07:00 | 4,5 | 0,3 | 0 | 0,1 | 272 | 0,2 | 1089 |
| 28 | Lebu INIA | 02-09-2026 06:45 | 4,6 | 0,4 | 0 | 0 | 318 | 0 | 1092 |
| 27 | Lebu INIA | 02-09-2026 06:30 | 4,6 | 0,4 | 0 | 0 | 0 | 0,1 | 1089 |
| 26 | Lebu INIA | 02-09-2026 06:15 | 4,7 | 0,4 | 0 | 0 | 0 | 0,1 | 1091 |
| 25 | Lebu INIA | 02-09-2026 06:00 | 4,6 | 0,3 | 0 | 0 | 0 | 0 | 1089 |
| 24 | Lebu INIA | 02-09-2026 05:45 | 4,6 | 0,4 | 0 | 0 | 0 | 0 | 1091 |
| 23 | Lebu INIA | 02-09-2026 05:30 | 4,6 | 0,4 | 0 | 0,1 | 17 | 0,1 | 1091 |
| 22 | Lebu INIA | 02-09-2026 05:15 | 4,7 | 0,4 | 0,1 | 0,5 | 23 | 0 | 1091 |
| 21 | Lebu INIA | 02-09-2026 05:00 | 4,7 | 0,4 | 0,1 | 0,6 | 18 | 0 | 1091 |
| 20 | Lebu INIA | 02-09-2026 04:45 | 4,7 | 0,4 | 0,2 | 1,2 | 27 | 0 | 1089 |
| 19 | Lebu INIA | 02-09-2026 04:30 | 4,7 | 0,4 | 0,2 | 0,8 | 21 | 0 | 1091 |
| 18 | Lebu INIA | 02-09-2026 04:15 | 4,8 | 0,4 | 0 | 0,7 | 34 | 0 | 1093 |
| 17 | Lebu INIA | 02-09-2026 04:00 | 4,8 | 0,4 | 0,2 | 1,4 | 24 | 0 | 1089 |
| 16 | Lebu INIA | 02-09-2026 03:45 | 4,9 | 0,3 | 0,3 | 1,3 | 24 | 0 | 1094 |
| 15 | Lebu INIA | 02-09-2026 03:30 | 5 | 0,4 | 0,6 | 1,1 | 23 | 0 | 1092 |
| 14 | Lebu INIA | 02-09-2026 03:15 | 5,1 | 0,3 | 0,3 | 0,7 | 15 | 0 | 1092 |
| 13 | Lebu INIA | 02-09-2026 03:00 | 5,1 | 0,4 | 0,4 | 1,6 | 22 | 0 | 1092 |
| 12 | Lebu INIA | 02-09-2026 02:45 | 5,2 | 0,3 | 0,3 | 0,9 | 13 | 0 | 1092 |
| 11 | Lebu INIA | 02-09-2026 02:30 | 5,4 | 0,4 | 0,7 | 0,8 | 1 | 0 | 1092 |
| 10 | Lebu INIA | 02-09-2026 02:15 | 5,5 | 100 | 0,4 | 0,7 | 12 | 0,1 | 1091 |
| 9 | Lebu INIA | 02-09-2026 02:00 | 5,7 | 100 | 0,7 | 2,1 | 23 | 0,1 | 1093 |
| 8 | Lebu INIA | 02-09-2026 01:45 | 5,9 | 100 | 0,3 | 1,1 | 21 | 0,1 | 1090 |
| 7 | Lebu INIA | 02-09-2026 01:30 | 6,1 | 94,5 | 0,3 | 0,9 | 15 | 0,1 | 1090 |
| 6 | Lebu INIA | 02-09-2026 01:15 | 6,4 | 92,6 | 0,4 | 1,1 | 1 | 0,1 | 1091 |
| 5 | Lebu INIA | 02-09-2026 01:00 | 6,7 | 91,7 | 0,9 | 0,6 | 2 | 0,1 | 0 |
| 4 | Lebu INIA | 02-09-2026 00:45 | 6,8 | 90,1 | 0,7 | 0,6 | 348 | 0,1 | 1091 |
| 3 | Lebu INIA | 02-09-2026 00:30 | 6,9 | 88,9 | 0,2 | 0,9 | 346 | 0,1 | 1091 |
| 2 | Lebu INIA | 02-09-2026 00:15 | 7 | 87,8 | 0,1 | 1,7 | 13 | 0,1 | 1089 |
| 1 | Lebu INIA | 02-09-2026 00:00 | 7 | 87,2 | 0 | 1,1 | 7 | 0,1 | 1091 |